Time;durP1;ratioP1;P1;durP2;ratioP2;P2;SDS_P1;SDS_P2;PMS_P1;PMS_P2;Temp;Humidity;BMP_temperature;BMP_pressure;BME280_temperature;BME280_humidity;BME280_pressure;Samples;Min_cycle;Max_cycle;Signal;HPM_P1;HPM_P2
2022/01/26 00:07:56;;;;;;;38.45;14.48;;;;;;;11.98;45.98;102242.50;4423828;32;20445;-69
2022/01/26 00:10:23;;;;;;;34.58;13.50;;;;;;;12.13;45.73;102239.56;4421123;32;20081;-69
2022/01/26 00:12:49;;;;;;;34.90;13.82;;;;;;;12.35;45.39;102226.91;4422088;32;20128;-69
2022/01/26 00:15:15;;;;;;;40.22;14.55;;;;;;;12.35;45.48;102232.56;4423301;32;20038;-69
2022/01/26 00:17:41;;;;;;;33.50;13.88;;;;;;;12.53;44.92;102238.88;4410446;32;20369;-69
2022/01/26 00:20:23;;;;;;;39.45;15.30;;;;;;;12.48;44.74;102244.94;4421079;32;20093;-69
2022/01/26 00:39:03;;;;;;;38.95;16.05;;;;;;;12.09;44.66;102281.94;4426334;32;20029;-69
2022/01/26 00:41:34;;;;;;;41.03;15.90;;;;;;;11.95;44.93;102279.19;4425725;32;20046;-69
2022/01/26 00:44:00;;;;;;;45.25;17.37;;;;;;;11.74;45.06;102273.63;4427080;32;20128;-69
2022/01/26 00:46:26;;;;;;;45.25;16.10;;;;;;;11.67;45.26;102277.31;4427312;32;20060;-69
2022/01/26 00:48:52;;;;;;;41.58;15.85;;;;;;;11.71;45.04;102272.44;4428688;32;20046;-69
2022/01/26 00:51:21;;;;;;;39.70;14.38;;;;;;;11.67;45.28;102266.03;4423468;32;20398;-69
2022/01/26 00:53:54;;;;;;;37.28;15.90;;;;;;;11.64;45.58;102272.50;4425603;32;20429;-69
2022/01/26 00:56:20;;;;;;;35.17;14.65;;;;;;;11.68;45.42;102266.81;4426631;32;20502;-69
2022/01/26 00:58:46;;;;;;;39.20;15.35;;;;;;;11.44;45.62;102253.56;4422102;32;20038;-69
2022/01/26 01:01:12;;;;;;;39.38;14.52;;;;;;;11.52;45.27;102253.16;4426836;32;20060;-69
2022/01/26 01:03:43;;;;;;;36.58;15.18;;;;;;;11.40;45.73;102252.78;4427812;32;20049;-69
2022/01/26 01:08:47;;;;;;;37.85;14.40;;;;;;;11.79;45.57;102254.25;3981021;32;15022106;-70
2022/01/26 01:11:14;;;;;;;35.75;14.48;;;;;;;11.79;45.57;102254.25;4425807;32;21303;-69
2022/01/26 01:13:42;;;;;;;36.13;14.55;;;;;;;11.36;47.22;102238.72;4427232;32;20081;-70
2022/01/26 01:16:13;;;;;;;33.28;13.30;;;;;;;11.46;48.63;102226.59;4431574;32;20439;-69
2022/01/26 01:18:46;;;;;;;31.73;13.82;;;;;;;11.83;47.54;102246.59;4426511;32;20097;-69
2022/01/26 01:24:49;;;;;;;35.10;14.00;;;;;;;12.23;46.59;102279.00;3978918;32;15025108;-69
2022/01/26 01:31:59;;;;;;;38.20;14.05;;;;;;;12.33;46.55;102285.81;3977326;32;15024082;-68
2022/01/26 01:34:35;;;;;;;35.33;13.75;;;;;;;12.33;46.55;102285.81;4423976;32;20136;-69
2022/01/26 01:37:05;;;;;;;40.50;14.32;;;;;;;11.81;48.22;102273.59;4428313;32;20073;-69
2022/01/26 01:39:33;;;;;;;40.15;14.52;;;;;;;11.87;48.46;102269.12;4427983;32;20134;-69
2022/01/26 01:42:00;;;;;;;40.95;15.30;;;;;;;12.11;48.38;102262.56;4428798;32;20167;-69
2022/01/26 01:44:26;;;;;;;32.03;13.27;;;;;;;12.12;48.30;102244.41;4425846;32;20151;-69
2022/01/26 01:46:54;;;;;;;34.90;14.48;;;;;;;12.34;47.85;102237.41;4427258;32;20046;-69
2022/01/26 01:49:20;;;;;;;31.33;12.05;;;;;;;12.62;46.98;102253.31;4423009;32;20116;-69
2022/01/26 01:51:53;;;;;;;35.38;12.25;;;;;;;12.68;46.64;102249.63;4424537;32;20120;-69
2022/01/26 01:54:19;;;;;;;30.15;10.43;;;;;;;12.75;46.19;102258.03;4422230;32;20119;-69
2022/01/26 01:56:53;;;;;;;29.08;10.77;;;;;;;12.88;45.70;102236.53;4421916;32;20761;-69
2022/01/26 01:59:20;;;;;;;26.67;10.80;;;;;;;13.26;45.09;102235.34;4428616;32;20125;-69
2022/01/26 02:01:46;;;;;;;26.90;10.60;;;;;;;12.78;45.81;102245.91;4426229;32;20095;-69
2022/01/26 02:04:12;;;;;;;24.25;9.82;;;;;;;12.97;45.02;102242.50;4426967;32;20096;-69
2022/01/26 02:06:38;;;;;;;24.08;11.27;;;;;;;13.01;45.00;102245.31;4426451;32;20417;-69
2022/01/26 02:09:04;;;;;;;23.25;10.15;;;;;;;13.03;44.85;102245.69;4428057;32;20092;-68
2022/01/26 02:11:29;;;;;;;29.90;10.77;;;;;;;13.21;44.45;102249.12;4424714;32;20022;-69
2022/01/26 02:16:43;;;;;;;33.60;11.38;;;;;;;13.50;44.28;102245.56;3980384;32;15021929;-69
2022/01/26 02:54:56;;;;;;;25.52;11.32;;;;;;;14.03;43.65;102285.28;3945662;32;15924603;-69
2022/01/26 03:05:31;;;;;;;29.95;11.43;;;;;;;13.79;43.62;102305.44;3977603;32;15026356;-70
2022/01/26 03:08:04;;;;;;;28.75;11.48;;;;;;;13.52;44.03;102294.03;4430202;32;20043;-69
2022/01/26 03:10:39;;;;;;;29.52;12.02;;;;;;;13.29;44.53;102299.53;4426742;32;20085;-70
2022/01/26 03:13:10;;;;;;;24.83;11.70;;;;;;;13.40;44.43;102294.56;4427807;32;20309;-69
2022/01/26 03:15:43;;;;;;;29.17;12.40;;;;;;;13.40;44.34;102290.94;4425462;32;20128;-70
2022/01/26 03:20:50;;;;;;;31.40;12.68;;;;;;;13.63;44.24;102286.22;3980151;32;15021850;-69
2022/01/26 03:34:19;;;;;;;;;;;;;;;12.97;45.68;102248.16;4429926;32;20496;-70
2022/01/26 03:39:24;;;;;;;26.92;11.57;;;;;;;13.28;45.49;102241.38;3979022;32;15024347;-69
2022/01/26 03:44:28;;;;;;;27.98;12.20;;;;;;;13.52;45.20;102253.63;3987162;32;15023701;-69
2022/01/26 03:46:53;;;;;;;32.28;13.10;;;;;;;13.33;45.04;102269.22;4442257;32;20063;-69
2022/01/26 03:49:19;;;;;;;29.65;12.52;;;;;;;13.38;44.77;102265.91;4440283;32;20060;-69
2022/01/26 03:51:45;;;;;;;28.50;11.98;;;;;;;13.44;44.71;102271.91;4439434;32;20375;-70
2022/01/26 03:54:13;;;;;;;25.92;12.15;;;;;;;13.36;44.91;102276.84;4440850;32;20076;-70
2022/01/26 03:56:38;;;;;;;30.52;11.93;;;;;;;13.47;44.99;102274.69;4441617;32;20037;-70
2022/01/26 03:59:05;;;;;;;25.58;11.00;;;;;;;13.17;46.00;102276.66;4439690;32;20493;-70
2022/01/26 04:01:31;;;;;;;28.75;12.07;;;;;;;13.51;45.45;102267.00;4437230;32;20066;-70
2022/01/26 04:03:57;;;;;;;24.45;11.63;;;;;;;13.42;45.35;102263.03;4442894;32;20093;-70
2022/01/26 04:06:24;;;;;;;26.33;11.10;;;;;;;13.30;45.86;102253.09;4440726;32;20068;-70
2022/01/26 04:08:50;;;;;;;27.80;11.32;;;;;;;13.50;45.17;102239.91;4438972;32;20041;-70
2022/01/26 04:14:01;;;;;;;25.75;11.20;;;;;;;14.12;44.84;102256.47;3980651;32;15023355;-70
2022/01/26 04:16:27;;;;;;;28.67;12.32;;;;;;;14.12;44.84;102256.47;4428929;32;20056;-70
2022/01/26 04:18:55;;;;;;;25.48;10.40;;;;;;;13.84;44.62;102256.87;4426324;32;20068;-70
2022/01/26 04:26:43;;;;;;;26.17;10.55;;;;;;;13.76;45.83;102253.34;3979704;32;15021480;-70
2022/01/26 04:29:14;;;;;;;25.52;10.95;;;;;;;13.76;45.83;102253.34;4424847;32;20095;-70
2022/01/26 04:31:40;;;;;;;30.17;11.10;;;;;;;13.24;47.19;102263.25;4424978;32;20536;-70
2022/01/26 04:34:06;;;;;;;21.92;9.68;;;;;;;13.33;46.77;102259.91;4429682;32;20062;-70
2022/01/26 04:36:42;;;;;;;24.33;10.73;;;;;;;13.85;45.86;102264.94;4426546;32;20080;-70
2022/01/26 04:39:14;;;;;;;27.65;11.85;;;;;;;14.07;45.14;102262.59;4426141;32;20065;-70
2022/01/26 04:41:47;;;;;;;30.42;10.70;;;;;;;14.62;44.21;102257.31;4424230;32;20041;-70
2022/01/26 04:44:21;;;;;;;26.83;11.60;;;;;;;14.95;43.58;102249.88;4425173;32;20119;-70
2022/01/26 04:46:48;;;;;;;27.30;11.93;;;;;;;14.72;43.74;102252.69;4427715;32;20447;-70
2022/01/26 04:49:14;;;;;;;28.85;12.95;;;;;;;15.19;43.03;102238.06;4424027;32;20112;-70
2022/01/26 04:51:40;;;;;;;30.45;11.95;;;;;;;15.36;42.59;102233.28;4424916;32;20490;-70
2022/01/26 04:54:06;;;;;;;23.23;10.88;;;;;;;15.43;42.22;102233.16;4426044;32;20281;-71
2022/01/26 04:56:31;;;;;;;29.00;11.93;;;;;;;15.60;41.95;102237.69;4425875;32;20079;-70
2022/01/26 04:58:58;;;;;;;33.55;12.23;;;;;;;15.50;41.90;102236.66;4428000;32;20078;-71
2022/01/26 05:01:24;;;;;;;25.95;11.90;;;;;;;15.60;41.85;102246.19;4421263;32;20384;-71
2022/01/26 05:03:50;;;;;;;29.85;12.40;;;;;;;15.65;41.50;102252.16;4427607;32;20411;-70
2022/01/26 05:06:16;;;;;;;29.27;12.63;;;;;;;15.74;41.40;102243.84;4425479;32;20068;-71
2022/01/26 05:08:42;;;;;;;26.52;12.82;;;;;;;15.65;41.23;102240.03;4423061;32;20084;-71
2022/01/26 05:11:11;;;;;;;25.25;11.55;;;;;;;15.69;41.57;102229.38;4424388;32;20037;-71
2022/01/26 05:13:37;;;;;;;29.87;11.52;;;;;;;15.63;41.45;102228.28;4425358;32;20034;-71
2022/01/26 05:16:05;;;;;;;26.00;11.50;;;;;;;15.67;41.43;102226.97;4426375;32;20091;-71
2022/01/26 05:18:32;;;;;;;26.95;11.70;;;;;;;15.67;41.55;102226.19;4425139;32;20078;-71
2022/01/26 05:20:58;;;;;;;31.85;12.43;;;;;;;15.58;41.18;102229.59;4425414;32;20059;-70
2022/01/26 05:23:24;;;;;;;28.60;12.15;;;;;;;15.60;41.42;102229.97;4422925;32;20118;-70
2022/01/26 05:25:52;;;;;;;25.75;11.48;;;;;;;15.75;41.46;102228.44;4421497;32;20096;-70
2022/01/26 05:28:18;;;;;;;29.37;11.70;;;;;;;16.00;41.22;102230.72;4428348;32;20517;-70
2022/01/26 05:30:43;;;;;;;27.85;11.55;;;;;;;15.81;41.37;102223.81;4423066;32;20033;-70
2022/01/26 05:33:09;;;;;;;29.33;11.32;;;;;;;16.02;40.99;102245.28;4425471;32;20096;-70
2022/01/26 05:35:35;;;;;;;24.98;11.85;;;;;;;16.02;40.86;102251.75;4425967;32;20458;-70
2022/01/26 05:38:01;;;;;;;24.87;11.32;;;;;;;16.09;41.11;102258.50;4416245;32;20038;-70
2022/01/26 05:40:26;;;;;;;26.40;11.52;;;;;;;16.09;40.99;102250.78;4413031;32;20034;-70
2022/01/26 05:42:52;;;;;;;23.98;11.12;;;;;;;16.06;40.71;102251.69;4416339;32;20496;-70
2022/01/26 05:45:26;;;;;;;23.40;11.05;;;;;;;16.05;40.97;102246.44;4411370;32;20480;-70
2022/01/26 05:47:52;;;;;;;24.30;10.50;;;;;;;16.05;41.13;102235.09;4418277;32;20089;-70
2022/01/26 05:50:19;;;;;;;22.13;10.10;;;;;;;15.88;41.58;102231.38;4413455;32;20124;-70
2022/01/26 05:52:45;;;;;;;25.30;11.07;;;;;;;15.99;41.74;102243.31;4419628;32;20026;-70
2022/01/26 05:55:11;;;;;;;28.52;11.52;;;;;;;16.25;41.24;102236.63;4416611;32;20409;-70
2022/01/26 05:57:37;;;;;;;26.30;10.63;;;;;;;16.21;41.37;102230.22;4414857;32;20038;-70
2022/01/26 06:00:05;;;;;;;21.30;11.05;;;;;;;16.09;41.42;102215.91;4414013;32;20057;-70
2022/01/26 06:02:32;;;;;;;30.00;11.82;;;;;;;16.34;41.02;102216.13;4414264;32;20049;-70
2022/01/26 06:04:57;;;;;;;28.10;11.73;;;;;;;16.15;41.34;102212.13;4414303;32;20069;-70
2022/01/26 06:07:23;;;;;;;33.10;12.80;;;;;;;15.99;41.68;102214.94;4413376;32;20597;-70
2022/01/26 06:09:49;;;;;;;28.62;12.25;;;;;;;15.89;42.09;102211.09;4416436;32;20069;-70
2022/01/26 06:12:15;;;;;;;25.90;11.40;;;;;;;15.86;42.11;102203.44;4416624;32;20104;-70
2022/01/26 06:14:40;;;;;;;29.70;12.05;;;;;;;16.06;41.91;102200.56;4418223;32;20061;-70
2022/01/26 06:17:07;;;;;;;27.58;12.25;;;;;;;15.89;42.27;102210.28;4415107;32;20042;-70
2022/01/26 06:19:33;;;;;;;32.72;11.60;;;;;;;15.58;43.01;102211.78;4413428;32;20049;-70
2022/01/26 06:21:59;;;;;;;28.80;12.18;;;;;;;15.88;42.43;102212.34;4413029;32;20069;-70
2022/01/26 06:24:25;;;;;;;31.62;13.02;;;;;;;15.52;42.84;102213.50;4408620;32;21462;-70
2022/01/26 06:26:51;;;;;;;30.42;13.45;;;;;;;15.78;42.52;102223.91;4415218;32;20069;-70
2022/01/26 06:29:17;;;;;;;32.15;13.20;;;;;;;15.67;43.20;102223.34;4416684;32;20120;-70
2022/01/26 06:31:43;;;;;;;32.53;13.70;;;;;;;15.87;42.45;102222.06;4414050;32;20095;-70
2022/01/26 06:34:11;;;;;;;33.22;14.32;;;;;;;15.98;42.68;102231.16;4413844;32;20073;-70
2022/01/26 06:36:43;;;;;;;30.67;11.98;;;;;;;16.24;42.02;102225.69;4416181;32;20046;-70
2022/01/26 06:39:11;;;;;;;33.22;13.68;;;;;;;16.10;42.21;102212.63;4414133;32;20068;-71
2022/01/26 06:41:37;;;;;;;32.53;14.15;;;;;;;16.21;42.01;102206.69;4411228;32;20087;-70
2022/01/26 06:44:15;;;;;;;34.50;13.70;;;;;;;16.36;41.67;102210.81;4413879;32;20093;-70
2022/01/26 06:49:30;;;;;;;34.92;13.20;;;;;;;16.53;41.37;102213.22;4413637;32;20086;-70
2022/01/26 06:51:57;;;;;;;29.30;13.35;;;;;;;16.34;41.29;102214.09;4409695;32;20711;-70
2022/01/26 06:54:23;;;;;;;31.25;14.00;;;;;;;16.59;41.51;102217.13;4412403;32;20034;-70
2022/01/26 06:56:49;;;;;;;38.33;13.68;;;;;;;16.35;41.61;102221.34;4414989;32;20628;-70
2022/01/26 06:59:15;;;;;;;40.33;13.85;;;;;;;16.26;41.92;102214.69;4412197;32;20087;-70
2022/01/26 07:01:41;;;;;;;30.62;13.15;;;;;;;16.41;41.45;102219.59;4412492;32;20066;-70
2022/01/26 07:04:08;;;;;;;30.92;12.60;;;;;;;16.59;41.19;102219.97;4415047;32;20045;-70
2022/01/26 07:06:34;;;;;;;35.78;14.27;;;;;;;16.49;41.34;102208.88;4414141;32;20112;-71
2022/01/26 07:09:00;;;;;;;29.98;14.38;;;;;;;16.59;41.16;102219.97;4413789;32;20038;-71
2022/01/26 07:11:26;;;;;;;31.23;14.13;;;;;;;16.40;41.52;102203.78;4415234;32;20060;-70
2022/01/26 07:13:54;;;;;;;33.70;14.27;;;;;;;16.17;42.01;102203.94;4414799;32;20455;-71
2022/01/26 07:21:51;;;;;;;;;;;;;;;16.22;41.72;102214.78;4412463;32;20125;-71
2022/01/26 07:24:17;;;;;;;33.03;14.38;;;;;;;16.49;41.51;102225.94;4415906;32;19984;-71
2022/01/26 07:26:45;;;;;;;29.10;14.38;;;;;;;16.07;42.05;102213.50;4412335;32;20081;-71
2022/01/26 07:29:12;;;;;;;30.52;11.63;;;;;;;15.82;42.23;102210.44;4413661;32;20089;-70
2022/01/26 07:31:42;;;;;;;26.23;10.80;;;;;;;15.70;42.78;102202.59;4412920;32;20021;-71
2022/01/26 07:34:12;;;;;;;47.03;12.55;;;;;;;15.54;42.94;102196.88;4410113;32;20095;-71
2022/01/26 07:36:38;;;;;;;30.55;11.43;;;;;;;15.49;42.89;102175.47;4404281;32;20022;-72
2022/01/26 07:39:08;;;;;;;25.48;11.23;;;;;;;15.09;43.91;102173.84;4409041;32;21107;-71
2022/01/26 07:41:34;;;;;;;26.02;10.95;;;;;;;15.07;43.65;102172.69;4404048;32;20068;-71
2022/01/26 07:44:01;;;;;;;24.75;10.45;;;;;;;14.95;44.33;102173.34;4401427;32;20074;-71
2022/01/26 07:46:27;;;;;;;26.45;10.77;;;;;;;14.90;44.15;102176.66;4407452;32;20025;-71
2022/01/26 07:48:54;;;;;;;20.75;10.13;;;;;;;14.99;43.90;102186.22;4407363;32;20374;-71
2022/01/26 07:51:20;;;;;;;25.92;9.75;;;;;;;14.83;44.15;102188.94;4406166;32;20064;-72
2022/01/26 07:53:46;;;;;;;28.95;10.32;;;;;;;14.95;43.94;102196.00;4400275;32;20090;-71
2022/01/26 07:56:12;;;;;;;26.55;10.20;;;;;;;14.99;43.89;102208.06;4407841;32;20476;-71
2022/01/26 07:58:39;;;;;;;25.02;10.00;;;;;;;15.00;43.87;102215.38;4403595;32;20073;-71
2022/01/26 08:01:06;;;;;;;22.00;10.55;;;;;;;14.68;44.39;102223.63;4403633;32;20085;-72
2022/01/26 08:03:33;;;;;;;29.20;11.07;;;;;;;14.92;43.71;102223.19;4402348;32;20773;-70
2022/01/26 08:06:02;;;;;;;23.70;10.55;;;;;;;14.90;43.77;102228.50;4407446;32;20416;-70
2022/01/26 08:08:29;;;;;;;25.20;11.43;;;;;;;15.07;43.57;102226.56;4405797;32;20069;-70
2022/01/26 08:10:56;;;;;;;33.50;11.70;;;;;;;14.86;43.72;102235.47;4402108;32;20069;-70
2022/01/26 08:13:22;;;;;;;26.42;9.77;;;;;;;15.10;43.50;102217.19;4400112;32;20041;-70
2022/01/26 08:15:47;;;;;;;18.73;10.27;;;;;;;14.80;43.90;102209.66;4394948;32;20075;-70
2022/01/26 08:18:14;;;;;;;29.55;11.48;;;;;;;14.80;43.66;102206.00;4397756;32;20100;-70
2022/01/26 08:20:40;;;;;;;35.47;12.98;;;;;;;14.76;43.91;102200.41;4397865;32;20140;-71
2022/01/26 08:23:07;;;;;;;26.35;11.80;;;;;;;14.68;43.94;102200.97;4395525;32;20062;-71
2022/01/26 08:25:33;;;;;;;31.15;12.18;;;;;;;14.87;43.88;102188.88;4404605;32;20293;-71
2022/01/26 08:28:08;;;;;;;27.77;11.93;;;;;;;14.68;44.08;102189.63;4398329;32;20066;-72
2022/01/26 08:30:37;;;;;;;22.77;10.32;;;;;;;14.80;43.58;102201.16;4393750;32;20518;-71
2022/01/26 08:33:05;;;;;;;22.58;10.98;;;;;;;14.59;44.34;102198.69;4401460;32;20535;-71
2022/01/26 08:35:34;;;;;;;21.65;9.98;;;;;;;14.90;43.56;102196.50;4402107;32;20083;-71
2022/01/26 08:38:00;;;;;;;25.95;9.40;;;;;;;14.58;43.98;102199.94;4403203;32;20528;-71
2022/01/26 08:40:26;;;;;;;26.55;9.50;;;;;;;14.19;44.53;102201.75;4399941;32;20173;-71
2022/01/26 08:42:52;;;;;;;27.95;9.18;;;;;;;14.59;43.74;102193.03;4399998;32;20034;-71
2022/01/26 08:45:18;;;;;;;23.30;8.55;;;;;;;14.45;43.81;102195.31;4403145;32;20117;-71
2022/01/26 08:47:44;;;;;;;24.35;8.27;;;;;;;14.39;43.91;102205.53;4396783;32;20068;-71
2022/01/26 08:50:10;;;;;;;25.75;8.40;;;;;;;14.43;43.71;102204.22;4400712;32;20060;-72
2022/01/26 08:52:36;;;;;;;19.50;7.32;;;;;;;14.47;43.56;102209.81;4401010;32;20077;-72
2022/01/26 08:55:03;;;;;;;20.90;8.00;;;;;;;14.33;43.86;102213.69;4396646;32;20029;-73
2022/01/26 08:57:29;;;;;;;31.15;9.13;;;;;;;14.73;43.14;102223.16;4399426;32;20069;-73
2022/01/26 08:59:55;;;;;;;22.73;7.12;;;;;;;14.38;43.72;102210.38;4402268;32;20125;-73
2022/01/26 09:02:20;;;;;;;19.05;7.25;;;;;;;14.32;43.63;102206.44;4402884;32;20405;-73
2022/01/26 09:04:46;;;;;;;17.60;7.05;;;;;;;14.38;43.83;102213.22;4405875;32;20467;-71
2022/01/26 09:07:15;;;;;;;17.73;6.82;;;;;;;14.70;43.04;102213.47;4405031;32;20679;-71
2022/01/26 09:09:44;;;;;;;18.92;7.25;;;;;;;14.70;42.90;102212.69;4402013;32;20479;-70
2022/01/26 09:12:12;;;;;;;18.55;6.53;;;;;;;14.99;42.77;102213.75;4401918;32;20034;-71
2022/01/26 09:14:38;;;;;;;45.97;31.52;;;;;;;15.27;41.91;102231.03;4407108;32;20065;-71
2022/01/26 09:17:05;;;;;;;21.83;8.07;;;;;;;15.64;41.30;102224.22;4402736;32;20720;-70
2022/01/26 09:19:32;;;;;;;18.27;6.95;;;;;;;15.82;40.92;102221.78;4402343;32;20081;-72
2022/01/26 09:22:06;;;;;;;18.90;7.25;;;;;;;15.78;40.46;102221.06;4403584;32;20647;-70
2022/01/26 09:24:36;;;;;;;19.75;7.25;;;;;;;16.41;39.68;102216.75;4405530;32;20086;-70
2022/01/26 09:27:03;;;;;;;16.55;6.50;;;;;;;16.52;39.70;102225.84;4408220;32;20142;-70
2022/01/26 09:29:29;;;;;;;15.27;7.45;;;;;;;16.53;39.05;102221.75;4403105;32;20127;-70
2022/01/26 09:31:55;;;;;;;15.88;7.70;;;;;;;16.81;38.48;102228.78;4401745;32;20073;-71
2022/01/26 09:34:24;;;;;;;20.48;7.53;;;;;;;17.14;38.43;102224.59;4404672;32;20103;-71
2022/01/26 09:36:50;;;;;;;17.08;6.62;;;;;;;17.58;37.86;102221.72;4403927;32;20132;-70
2022/01/26 09:39:19;;;;;;;16.17;6.30;;;;;;;17.87;37.16;102213.13;4401682;32;20905;-71
2022/01/26 09:41:47;;;;;;;16.23;6.70;;;;;;;17.97;36.75;102216.91;4404184;32;20126;-71
2022/01/26 09:44:13;;;;;;;18.15;6.70;;;;;;;18.00;36.27;102210.28;4400207;32;20525;-72
2022/01/26 09:46:40;;;;;;;15.05;6.47;;;;;;;18.17;36.31;102214.62;4401117;32;20773;-72
2022/01/26 09:49:07;;;;;;;15.88;5.78;;;;;;;18.17;36.34;102215.44;4404368;32;20041;-70
2022/01/26 09:51:40;;;;;;;21.25;6.12;;;;;;;18.31;35.73;102209.28;4404282;32;20073;-73
2022/01/26 09:54:11;;;;;;;15.32;6.60;;;;;;;18.34;36.16;102211.22;4399778;32;20026;-71
2022/01/26 09:56:37;;;;;;;15.57;6.50;;;;;;;18.98;34.99;102207.00;4400829;32;20106;-70
2022/01/26 09:59:03;;;;;;;16.98;7.00;;;;;;;18.96;35.06;102204.62;4403434;32;20469;-73
2022/01/26 10:01:49;;;;;;;16.15;6.18;;;;;;;18.97;34.69;102205.41;4404542;32;20173;-73
2022/01/26 10:04:36;;;;;;;;;;;;;;;19.81;33.86;102205.12;4400818;32;20093;-70
2022/01/26 10:23:19;;;;;;;12.02;4.72;;;;;;;21.40;31.09;102202.87;3973607;32;15028064;-71
2022/01/26 10:25:58;;;;;;;13.75;5.93;;;;;;;21.40;31.09;102202.87;4429231;32;20040;-71
2022/01/26 10:28:24;;;;;;;11.35;4.87;;;;;;;21.39;31.35;102196.34;4427534;32;20057;-71
2022/01/26 10:30:49;;;;;;;12.23;5.07;;;;;;;21.65;30.36;102193.94;4422608;32;20025;-71
2022/01/26 10:33:17;;;;;;;13.50;5.07;;;;;;;22.03;30.43;102194.16;4421104;32;20431;-72
2022/01/26 10:35:43;;;;;;;16.10;7.57;;;;;;;22.33;29.74;102190.22;4425941;32;20198;-71
2022/01/26 10:38:13;;;;;;;8.77;4.15;;;;;;;22.74;29.10;102200.06;4425227;32;20558;-71
2022/01/26 10:40:40;;;;;;;9.00;4.10;;;;;;;22.77;28.80;102190.47;4424938;32;20503;-71
2022/01/26 10:43:11;;;;;;;13.52;5.10;;;;;;;22.35;29.32;102193.41;4426200;32;20037;-71
2022/01/26 10:48:30;;;;;;;6.80;3.15;;;;;;;22.31;29.10;102192.78;3975755;32;15022305;-72
2022/01/26 10:54:08;;;;;;;9.45;3.97;;;;;;;20.86;31.42;102197.91;3975608;32;15034180;-72
2022/01/26 10:56:34;;;;;;;7.45;3.30;;;;;;;20.86;31.42;102197.91;4422414;32;20480;-72
2022/01/26 10:59:00;;;;;;;11.70;3.97;;;;;;;20.00;32.32;102195.38;4424184;32;20109;-72
2022/01/26 11:01:26;;;;;;;13.23;3.50;;;;;;;19.74;33.04;102188.28;4422433;32;20099;-72
2022/01/26 11:03:53;;;;;;;13.50;3.70;;;;;;;19.27;33.50;102191.28;4422283;32;20506;-72
2022/01/26 11:06:19;;;;;;;12.23;3.10;;;;;;;18.82;34.30;102184.34;4423303;32;20100;-71
2022/01/26 11:08:47;;;;;;;6.28;2.62;;;;;;;18.77;34.74;102182.06;4429093;32;20481;-71
2022/01/26 11:11:23;;;;;;;10.60;3.25;;;;;;;18.67;34.91;102178.34;4424071;32;20050;-75
2022/01/26 11:13:49;;;;;;;9.73;2.95;;;;;;;18.44;35.12;102169.41;4425966;32;20085;-71
2022/01/26 11:16:18;;;;;;;7.75;3.12;;;;;;;17.46;37.03;102164.78;4422733;32;20461;-72
2022/01/26 11:18:51;;;;;;;10.57;3.05;;;;;;;17.23;37.54;102168.66;4427241;32;20119;-71
2022/01/26 11:21:35;;;;;;;14.27;3.85;;;;;;;17.62;37.02;102176.09;4424438;32;20851;-71
2022/01/26 11:26:46;;;;;;;13.52;3.70;;;;;;;18.34;36.01;102176.19;3964114;32;15023970;-72
2022/01/26 11:29:15;;;;;;;13.82;3.80;;;;;;;18.34;36.01;102176.19;4414013;32;20102;-72
2022/01/26 11:31:42;;;;;;;10.35;2.80;;;;;;;18.13;35.97;102176.94;4412486;32;20077;-73
2022/01/26 11:34:10;;;;;;;8.18;3.50;;;;;;;17.23;37.38;102177.19;4413213;32;21057;-72
2022/01/26 11:36:40;;;;;;;9.77;3.60;;;;;;;17.87;36.50;102173.25;4413793;32;20158;-72
2022/01/26 11:42:16;;;;;;;8.27;3.35;;;;;;;18.47;35.60;102165.63;4411471;32;20033;-73
2022/01/26 11:42:29;;;;;;;10.43;2.92;;;;;;;18.72;35.20;102163.50;4409205;32;20046;-72
2022/01/26 11:45:05;;;;;;;6.80;2.78;;;;;;;18.33;35.45;102160.38;4414487;32;20065;-71
2022/01/26 11:47:32;;;;;;;8.05;2.75;;;;;;;18.34;35.42;102156.25;4415599;32;20380;-71
2022/01/26 11:50:20;;;;;;;7.65;3.33;;;;;;;18.97;34.43;102139.81;4411761;32;20049;-71
2022/01/26 11:52:59;;;;;;;8.55;2.70;;;;;;;19.64;33.83;102144.56;4408777;32;20041;-72
2022/01/26 11:55:33;;;;;;;10.13;3.35;;;;;;;19.80;33.35;102132.91;4412704;32;20317;-71
2022/01/26 12:04:08;;;;;;;8.75;2.70;;;;;;;20.42;32.62;102133.62;3960661;32;15021998;-70
2022/01/26 12:06:42;;;;;;;8.88;3.05;;;;;;;20.42;32.62;102133.62;4402926;32;20111;-70
2022/01/26 12:09:10;;;;;;;6.20;2.70;;;;;;;20.30;32.85;102108.81;4403518;32;20092;-71
2022/01/26 12:11:36;;;;;;;10.90;3.60;;;;;;;19.92;32.95;102110.41;4405391;32;20209;-71
2022/01/26 12:14:05;;;;;;;9.00;2.60;;;;;;;20.12;32.90;102105.09;4407825;32;20430;-71
2022/01/26 12:16:35;;;;;;;8.95;2.97;;;;;;;19.62;33.70;102109.19;4403966;32;20085;-70
2022/01/26 12:19:23;;;;;;;10.55;2.80;;;;;;;19.52;33.63;102101.84;4407247;32;20513;-71
2022/01/26 12:43:43;;;;;;;8.90;2.45;;;;;;;24.56;26.64;102103.53;4425526;32;20830;-71
2022/01/26 12:46:13;;;;;;;7.78;2.83;;;;;;;24.40;26.40;102103.31;4426651;32;20117;-71
2022/01/26 12:48:40;;;;;;;5.32;1.80;;;;;;;24.26;26.14;102110.72;4426705;32;20112;-73
2022/01/26 12:51:08;;;;;;;8.48;2.10;;;;;;;24.38;25.84;102120.28;4424037;32;20030;-71
2022/01/26 12:53:35;;;;;;;8.32;2.28;;;;;;;23.16;26.97;102114.53;4424615;32;20177;-72
2022/01/26 12:56:11;;;;;;;7.62;2.30;;;;;;;22.48;28.05;102105.03;4425747;32;20056;-72
2022/01/26 12:58:40;;;;;;;7.05;1.90;;;;;;;22.00;28.60;102094.00;4425300;32;20081;-70
2022/01/26 13:03:42;;;;;;;12.52;2.42;;;;;;;22.45;28.54;102070.75;3952288;32;15022392;-71
2022/01/26 13:08:47;;;;;;;8.82;1.90;;;;;;;22.27;28.48;102059.44;3974301;32;15021874;-70
2022/01/26 13:14:31;;;;;;;15.30;2.42;;;;;;;23.42;26.85;102044.56;3946666;32;15741527;-71
2022/01/26 13:22:29;;;;;;;13.80;1.73;;;;;;;23.45;26.97;102037.00;3964032;32;15025138;-71
2022/01/26 13:25:08;;;;;;;15.57;2.45;;;;;;;23.45;26.97;102037.00;4419011;32;20140;-71
2022/01/26 13:27:55;;;;;;;11.68;2.70;;;;;;;23.34;26.64;102049.09;4415422;32;20599;-73
2022/01/26 13:30:35;;;;;;;14.85;2.20;;;;;;;22.37;27.70;102024.44;4416005;32;20426;-72
2022/01/26 13:52:15;;;;;;;12.00;3.87;;;;;;;19.51;32.30;101992.53;4419737;32;20029;-72
2022/01/26 13:54:55;;;;;;;7.97;3.80;;;;;;;18.91;33.12;101981.91;4426432;32;20575;-71
2022/01/26 13:57:43;;;;;;;8.18;3.80;;;;;;;19.60;32.15;101978.28;4423553;32;20065;-72
2022/01/26 14:00:11;;;;;;;14.43;5.62;;;;;;;20.11;31.60;101974.88;4412872;32;20038;-72
2022/01/26 14:02:38;;;;;;;12.95;5.30;;;;;;;20.80;30.60;101950.09;4417569;32;20537;-72
2022/01/26 14:05:05;;;;;;;16.70;4.75;;;;;;;20.95;30.47;101953.88;4421994;32;20470;-72
2022/01/26 14:07:32;;;;;;;13.62;4.78;;;;;;;21.11;30.46;101956.38;4421660;32;20220;-72
2022/01/26 14:09:59;;;;;;;10.70;4.50;;;;;;;21.18;30.17;101944.56;4418664;32;20037;-72
2022/01/26 14:12:30;;;;;;;16.70;4.95;;;;;;;22.32;28.76;101955.50;4420809;32;20051;-72
2022/01/26 14:14:58;;;;;;;14.02;4.37;;;;;;;22.71;28.19;101957.88;4420972;32;20053;-73
2022/01/26 14:17:35;;;;;;;18.30;4.28;;;;;;;24.07;26.65;101953.25;4419435;32;20482;-73
2022/01/26 14:20:14;;;;;;;18.27;4.90;;;;;;;24.86;25.51;101948.69;4421358;32;20037;-74
2022/01/26 14:23:13;;;;;;;17.12;5.03;;;;;;;24.84;25.81;101954.16;4422426;32;20085;-71
2022/01/26 14:25:28;;;;;;;23.92;5.55;;;;;;;25.27;25.30;101947.22;4422475;32;20112;-72
2022/01/26 14:28:02;;;;;;;13.20;4.82;;;;;;;25.98;24.48;101949.03;4425003;32;20142;-72
2022/01/26 14:36:38;;;;;;;10.35;3.85;;;;;;;24.88;25.15;101935.34;3978180;32;15056102;-72
2022/01/26 15:44:21;;;;;;;;;;;;;;;18.54;35.66;101912.44;4420137;32;20001;-71
2022/01/26 16:06:11;;;;;;;;;;;;;;;18.61;35.63;101849.44;4432383;32;20015;-71
2022/01/26 16:12:40;;;;;;;;;;;;;;;18.55;35.92;101850.50;4432079;32;19969;-71
2022/01/26 16:38:52;;;;;;;;;;;;;;;16.85;38.99;101792.38;4413621;32;19958;-70
2022/01/26 16:52:26;;;;;;;;;;;;;;;16.51;39.73;101783.72;4426869;32;20174;-70